Time;durP1;ratioP1;P1;durP2;ratioP2;P2;SDS_P1;SDS_P2;PMS_P1;PMS_P2;Temp;Humidity;BMP_temperature;BMP_pressure;BME280_temperature;BME280_humidity;BME280_pressure;Samples;Min_cycle;Max_cycle;Signal;HPM_P1;HPM_P2
2023/01/23 00:01:11;;;;;;;37.30;26.30;;;;;;;-128.00;-1.00;-1.00;105750;1251;1003446;-75
2023/01/23 00:03:38;;;;;;;37.60;24.30;;;;;;;-128.00;-1.00;-1.00;105738;1251;1059802;-75
2023/01/23 00:06:11;;;;;;;37.50;25.80;;;;;;;-128.00;-1.00;-1.00;105726;1252;1004081;-75
2023/01/23 00:08:41;;;;;;;35.50;25.70;;;;;;;-128.00;-1.00;-1.00;105765;1252;1047098;-75
2023/01/23 00:11:11;;;;;;;39.00;25.60;;;;;;;-128.00;-1.00;-1.00;105721;1255;1062563;-75
2023/01/23 00:13:38;;;;;;;38.30;26.40;;;;;;;-128.00;-1.00;-1.00;105810;1253;1054448;-75
2023/01/23 00:16:10;;;;;;;35.50;24.90;;;;;;;-128.00;-1.00;-1.00;105757;1252;1004127;-75
2023/01/23 00:18:38;;;;;;;40.60;27.00;;;;;;;-128.00;-1.00;-1.00;105705;1252;1046030;-75
2023/01/23 00:21:18;;;;;;;38.00;26.00;;;;;;;-128.00;-1.00;-1.00;105767;1252;1003424;-75
2023/01/23 00:23:48;;;;;;;42.20;27.20;;;;;;;-128.00;-1.00;-1.00;105802;1252;1060771;-75
2023/01/23 00:26:21;;;;;;;37.20;25.60;;;;;;;-128.00;-1.00;-1.00;105779;1252;1056215;-75
2023/01/23 00:28:49;;;;;;;38.20;26.40;;;;;;;-128.00;-1.00;-1.00;105733;1252;1059808;-75
2023/01/23 00:31:25;;;;;;;40.10;27.30;;;;;;;-128.00;-1.00;-1.00;105728;1251;1004879;-75
2023/01/23 00:33:54;;;;;;;36.50;26.40;;;;;;;-128.00;-1.00;-1.00;105755;1252;1046124;-75
2023/01/23 00:36:22;;;;;;;39.60;27.80;;;;;;;-128.00;-1.00;-1.00;105812;1252;1062064;-75
2023/01/23 00:38:51;;;;;;;38.60;28.50;;;;;;;-128.00;-1.00;-1.00;105760;1253;1003237;-75
2023/01/23 00:41:18;;;;;;;40.40;26.70;;;;;;;-128.00;-1.00;-1.00;105722;1251;1058813;-75
2023/01/23 00:43:47;;;;;;;38.20;26.50;;;;;;;-128.00;-1.00;-1.00;105736;1252;1005185;-75
2023/01/23 00:46:13;;;;;;;37.40;26.20;;;;;;;-128.00;-1.00;-1.00;105735;1252;1046251;-75
2023/01/23 00:48:40;;;;;;;41.50;27.30;;;;;;;-128.00;-1.00;-1.00;105605;1252;1004081;-75
2023/01/23 00:51:07;;;;;;;36.50;24.90;;;;;;;-128.00;-1.00;-1.00;105733;1252;1003828;-75
2023/01/23 00:53:34;;;;;;;41.10;25.60;;;;;;;-128.00;-1.00;-1.00;105746;1253;1003879;-75
2023/01/23 00:56:01;;;;;;;37.20;24.50;;;;;;;-128.00;-1.00;-1.00;105718;1252;1004250;-76
2023/01/23 00:58:27;;;;;;;36.50;24.80;;;;;;;-128.00;-1.00;-1.00;105798;1252;1003401;-75
2023/01/23 01:00:54;;;;;;;40.30;26.10;;;;;;;-128.00;-1.00;-1.00;105787;1252;1004291;-75
2023/01/23 01:03:23;;;;;;;35.10;24.00;;;;;;;-128.00;-1.00;-1.00;105759;1252;1004347;-76
2023/01/23 01:05:51;;;;;;;34.40;24.70;;;;;;;-128.00;-1.00;-1.00;105718;1251;1059602;-76
2023/01/23 01:08:18;;;;;;;36.10;25.20;;;;;;;-128.00;-1.00;-1.00;105398;1251;1005000;-75
2023/01/23 01:10:45;;;;;;;35.60;24.80;;;;;;;-128.00;-1.00;-1.00;105767;1251;1003605;-76
2023/01/23 01:13:12;;;;;;;41.20;26.60;;;;;;;-128.00;-1.00;-1.00;105739;1253;1004008;-75
2023/01/23 01:15:39;;;;;;;39.50;25.50;;;;;;;-128.00;-1.00;-1.00;105777;1251;1003199;-75
2023/01/23 01:18:05;;;;;;;41.10;26.90;;;;;;;-128.00;-1.00;-1.00;105731;1251;1004118;-75
2023/01/23 01:20:32;;;;;;;39.30;26.30;;;;;;;-128.00;-1.00;-1.00;105718;1251;1004677;-75
2023/01/23 01:22:59;;;;;;;36.90;25.80;;;;;;;-128.00;-1.00;-1.00;105496;1252;1004920;-75
2023/01/23 01:25:26;;;;;;;42.40;28.10;;;;;;;-128.00;-1.00;-1.00;105777;1252;1005131;-74
2023/01/23 01:27:54;;;;;;;40.10;28.00;;;;;;;-128.00;-1.00;-1.00;105602;1251;1004074;-74
2023/01/23 01:30:21;;;;;;;39.20;27.40;;;;;;;-128.00;-1.00;-1.00;105742;1252;1004920;-76
2023/01/23 01:32:49;;;;;;;37.10;26.40;;;;;;;-128.00;-1.00;-1.00;105746;1251;1003895;-76
2023/01/23 01:35:15;;;;;;;41.30;28.50;;;;;;;-128.00;-1.00;-1.00;105763;1253;1004038;-76
2023/01/23 01:37:42;;;;;;;47.30;32.60;;;;;;;-128.00;-1.00;-1.00;105624;1252;1003800;-74
2023/01/23 01:40:13;;;;;;;38.70;28.60;;;;;;;-128.00;-1.00;-1.00;105757;1251;1004554;-74
2023/01/23 01:42:49;;;;;;;45.20;29.30;;;;;;;-128.00;-1.00;-1.00;105627;1253;1059655;-75
2023/01/23 01:45:53;;;;;;;39.10;29.30;;;;;;;-128.00;-1.00;-1.00;105725;1251;1045355;-75
2023/01/23 01:48:23;;;;;;;44.40;29.70;;;;;;;-128.00;-1.00;-1.00;105781;1252;1047047;-75
2023/01/23 01:50:51;;;;;;;46.30;29.50;;;;;;;-128.00;-1.00;-1.00;105801;1252;1061462;-76
2023/01/23 01:53:20;;;;;;;41.00;25.70;;;;;;;-128.00;-1.00;-1.00;105732;1252;1005310;-75
2023/01/23 01:55:47;;;;;;;43.00;28.10;;;;;;;-128.00;-1.00;-1.00;105797;1252;1058327;-75
2023/01/23 01:58:14;;;;;;;38.50;25.60;;;;;;;-128.00;-1.00;-1.00;105729;1252;1004745;-75
2023/01/23 02:00:41;;;;;;;37.00;25.10;;;;;;;-128.00;-1.00;-1.00;105611;1252;1004972;-76
2023/01/23 02:03:08;;;;;;;35.00;24.40;;;;;;;-128.00;-1.00;-1.00;105444;1252;1003369;-76
2023/01/23 02:05:41;;;;;;;37.20;24.30;;;;;;;-128.00;-1.00;-1.00;105752;1251;1004080;-75
2023/01/23 02:08:17;;;;;;;35.90;25.30;;;;;;;-128.00;-1.00;-1.00;105765;1253;1059209;-75
2023/01/23 02:10:44;;;;;;;39.10;26.20;;;;;;;-128.00;-1.00;-1.00;105721;1253;1045627;-76
2023/01/23 02:13:31;;;;;;;41.70;26.90;;;;;;;-128.00;-1.00;-1.00;105757;1251;1003705;-75
2023/01/23 02:16:00;;;;;;;37.60;25.30;;;;;;;-128.00;-1.00;-1.00;105408;1254;1060398;-75
2023/01/23 02:18:30;;;;;;;39.60;25.30;;;;;;;-128.00;-1.00;-1.00;105720;1252;1056295;-75
2023/01/23 02:21:00;;;;;;;40.10;25.60;;;;;;;-128.00;-1.00;-1.00;105739;1253;1058892;-75
2023/01/23 02:23:30;;;;;;;38.40;25.30;;;;;;;-128.00;-1.00;-1.00;105776;1253;1045613;-75
2023/01/23 02:26:03;;;;;;;37.10;24.90;;;;;;;-128.00;-1.00;-1.00;105757;1252;1045998;-75
2023/01/23 02:28:46;;;;;;;42.60;27.10;;;;;;;-128.00;-1.00;-1.00;105759;1252;1061923;-75
2023/01/23 02:31:14;;;;;;;45.00;27.30;;;;;;;-128.00;-1.00;-1.00;105602;1253;1055096;-76
2023/01/23 02:33:59;;;;;;;38.30;25.40;;;;;;;-128.00;-1.00;-1.00;105758;1252;1004492;-75
2023/01/23 02:36:33;;;;;;;38.70;25.50;;;;;;;-128.00;-1.00;-1.00;105790;1252;1045288;-74
2023/01/23 02:39:00;;;;;;;37.30;24.80;;;;;;;-128.00;-1.00;-1.00;105731;1252;1047093;-75
2023/01/23 02:41:30;;;;;;;39.90;27.40;;;;;;;-128.00;-1.00;-1.00;105772;1252;1004111;-75
2023/01/23 02:43:58;;;;;;;;;;;;;;;-128.00;-1.00;-1.00;105713;1253;1056399;-75
2023/01/23 02:46:25;;;;;;;39.40;25.60;;;;;;;-128.00;-1.00;-1.00;104970;1253;1060074;-75
2023/01/23 02:48:52;;;;;;;39.00;26.80;;;;;;;-128.00;-1.00;-1.00;105730;1252;1005157;-75
2023/01/23 02:51:21;;;;;;;36.60;27.10;;;;;;;-128.00;-1.00;-1.00;105786;1252;1004210;-75
2023/01/23 02:53:48;;;;;;;41.90;25.80;;;;;;;-128.00;-1.00;-1.00;105771;1252;1061463;-75
2023/01/23 02:56:16;;;;;;;40.50;27.00;;;;;;;-128.00;-1.00;-1.00;105451;1253;1003779;-74
2023/01/23 03:01:30;;;;;;;39.80;26.30;;;;;;;-128.00;-1.00;-1.00;105708;1253;1044739;-75
2023/01/23 03:03:56;;;;;;;40.10;26.50;;;;;;;-128.00;-1.00;-1.00;105714;1253;1005057;-75
2023/01/23 03:06:23;;;;;;;42.20;27.20;;;;;;;-128.00;-1.00;-1.00;105411;1253;1004120;-74
2023/01/23 03:08:50;;;;;;;35.00;24.80;;;;;;;-128.00;-1.00;-1.00;105759;1252;1004765;-74
2023/01/23 03:11:18;;;;;;;34.20;24.50;;;;;;;-128.00;-1.00;-1.00;105744;1253;1004913;-75
2023/01/23 03:13:46;;;;;;;35.80;25.10;;;;;;;-128.00;-1.00;-1.00;105723;1252;1003424;-74
2023/01/23 03:16:13;;;;;;;48.60;32.50;;;;;;;-128.00;-1.00;-1.00;105215;1253;1005176;-75
2023/01/23 03:18:40;;;;;;;49.40;31.10;;;;;;;-128.00;-1.00;-1.00;105797;1253;1004512;-75
2023/01/23 03:21:07;;;;;;;40.10;27.30;;;;;;;-128.00;-1.00;-1.00;105801;1252;1004528;-75
2023/01/23 03:23:35;;;;;;;48.90;32.50;;;;;;;-128.00;-1.00;-1.00;105742;1253;1004345;-75
2023/01/23 03:26:01;;;;;;;46.70;33.70;;;;;;;-128.00;-1.00;-1.00;105705;1252;1004310;-76
2023/01/23 03:31:14;;;;;;;44.10;29.30;;;;;;;-128.00;-1.00;-1.00;105732;1253;1061629;-75
2023/01/23 03:33:43;;;;;;;42.80;27.80;;;;;;;-128.00;-1.00;-1.00;105758;1252;1004709;-75
2023/01/23 03:36:11;;;;;;;49.20;31.20;;;;;;;-128.00;-1.00;-1.00;105742;1253;1058942;-75
2023/01/23 03:38:38;;;;;;;46.60;31.10;;;;;;;-128.00;-1.00;-1.00;105723;1252;1004721;-75
2023/01/23 03:43:50;;;;;;;44.70;31.20;;;;;;;-128.00;-1.00;-1.00;105711;1255;1062275;-75
2023/01/23 03:46:16;;;;;;;43.80;32.50;;;;;;;-128.00;-1.00;-1.00;105748;1251;1004656;-75
2023/01/23 03:48:43;;;;;;;46.70;30.90;;;;;;;-128.00;-1.00;-1.00;105537;1252;1005062;-75
2023/01/23 03:51:10;;;;;;;47.50;31.10;;;;;;;-128.00;-1.00;-1.00;105463;1253;1004483;-75
2023/01/23 03:53:36;;;;;;;42.80;30.00;;;;;;;-128.00;-1.00;-1.00;105710;1252;1004944;-75
2023/01/23 03:56:05;;;;;;;44.70;28.60;;;;;;;-128.00;-1.00;-1.00;105608;1253;1004294;-75
2023/01/23 03:58:32;;;;;;;48.20;30.70;;;;;;;-128.00;-1.00;-1.00;105406;1259;1056035;-75
2023/01/23 04:01:02;;;;;;;47.70;31.20;;;;;;;-128.00;-1.00;-1.00;105665;1255;1004220;-77
2023/01/23 04:03:29;;;;;;;52.60;33.50;;;;;;;-128.00;-1.00;-1.00;105743;1253;1044728;-75
2023/01/23 04:05:58;;;;;;;55.90;34.40;;;;;;;-128.00;-1.00;-1.00;105285;1252;1004259;-75
2023/01/23 04:08:24;;;;;;;51.60;33.80;;;;;;;-128.00;-1.00;-1.00;105707;1256;1062039;-75
2023/01/23 04:10:59;;;;;;;59.40;35.50;;;;;;;-128.00;-1.00;-1.00;105688;1253;1004063;-76
2023/01/23 04:13:26;;;;;;;61.80;37.90;;;;;;;-128.00;-1.00;-1.00;105728;1253;1058691;-76
2023/01/23 04:15:53;;;;;;;68.00;39.20;;;;;;;-128.00;-1.00;-1.00;105752;1253;1003656;-76
2023/01/23 04:18:19;;;;;;;60.30;35.50;;;;;;;-128.00;-1.00;-1.00;105725;1254;1004116;-76
2023/01/23 04:20:46;;;;;;;60.20;36.90;;;;;;;-128.00;-1.00;-1.00;104055;1253;1004431;-76
2023/01/23 04:23:13;;;;;;;63.90;39.00;;;;;;;-128.00;-1.00;-1.00;105717;1253;1004050;-76
2023/01/23 04:25:39;;;;;;;60.10;37.10;;;;;;;-128.00;-1.00;-1.00;105695;1254;1003633;-75
2023/01/23 04:28:06;;;;;;;58.40;36.00;;;;;;;-128.00;-1.00;-1.00;105702;1252;1003542;-74
2023/01/23 04:30:33;;;;;;;59.00;37.60;;;;;;;-128.00;-1.00;-1.00;105681;1254;1003879;-76
2023/01/23 04:32:59;;;;;;;64.40;40.20;;;;;;;-128.00;-1.00;-1.00;105711;1253;1004302;-75
2023/01/23 04:35:26;;;;;;;62.10;39.30;;;;;;;-128.00;-1.00;-1.00;105740;1253;1004635;-75
2023/01/23 04:37:53;;;;;;;62.20;41.10;;;;;;;-128.00;-1.00;-1.00;105691;1254;1004161;-76
2023/01/23 04:40:19;;;;;;;67.60;41.40;;;;;;;-128.00;-1.00;-1.00;105687;1254;1004653;-75
2023/01/23 04:42:46;;;;;;;60.10;39.10;;;;;;;-128.00;-1.00;-1.00;105776;1252;1004198;-75
2023/01/23 04:45:13;;;;;;;64.90;41.40;;;;;;;-128.00;-1.00;-1.00;105678;1253;1004572;-75
2023/01/23 04:47:39;;;;;;;63.40;39.80;;;;;;;-128.00;-1.00;-1.00;105719;1252;1004612;-75
2023/01/23 04:50:07;;;;;;;56.80;37.90;;;;;;;-128.00;-1.00;-1.00;105312;1253;1004239;-76
2023/01/23 04:52:34;;;;;;;60.10;38.00;;;;;;;-128.00;-1.00;-1.00;105721;1253;1004108;-75
2023/01/23 04:55:04;;;;;;;60.70;38.00;;;;;;;-128.00;-1.00;-1.00;105740;1254;1003635;-76
2023/01/23 04:57:31;;;;;;;58.70;37.60;;;;;;;-128.00;-1.00;-1.00;105766;1253;1061132;-75
2023/01/23 04:59:58;;;;;;;61.40;38.40;;;;;;;-128.00;-1.00;-1.00;105740;1254;1004521;-75
2023/01/23 05:02:24;;;;;;;60.20;38.70;;;;;;;-128.00;-1.00;-1.00;105679;1253;1005250;-75
2023/01/23 05:04:51;;;;;;;63.90;41.30;;;;;;;-128.00;-1.00;-1.00;105691;1252;1003504;-75
2023/01/23 05:07:18;;;;;;;67.90;40.70;;;;;;;-128.00;-1.00;-1.00;105717;1254;1004219;-75
2023/01/23 05:09:44;;;;;;;63.30;39.90;;;;;;;-128.00;-1.00;-1.00;105687;1252;1003511;-76
2023/01/23 05:12:11;;;;;;;60.70;40.90;;;;;;;-128.00;-1.00;-1.00;105685;1254;1004493;-76
2023/01/23 05:14:38;;;;;;;58.20;36.40;;;;;;;-128.00;-1.00;-1.00;105742;1253;1004227;-75
2023/01/23 05:17:04;;;;;;;58.90;36.60;;;;;;;-128.00;-1.00;-1.00;105699;1252;1004696;-76
2023/01/23 05:19:31;;;;;;;55.60;36.20;;;;;;;-128.00;-1.00;-1.00;104632;1254;2002038;-75
2023/01/23 05:21:58;;;;;;;54.30;35.00;;;;;;;-128.00;-1.00;-1.00;105585;1252;1003709;-75
2023/01/23 05:24:25;;;;;;;56.20;35.70;;;;;;;-128.00;-1.00;-1.00;105736;1253;1004572;-76
2023/01/23 05:26:51;;;;;;;50.90;34.10;;;;;;;-128.00;-1.00;-1.00;105674;1253;1003932;-75
2023/01/23 05:29:18;;;;;;;52.80;35.20;;;;;;;-128.00;-1.00;-1.00;104930;1252;1004579;-76
2023/01/23 05:31:44;;;;;;;53.50;35.10;;;;;;;-128.00;-1.00;-1.00;105679;1252;1004348;-77
2023/01/23 05:34:11;;;;;;;50.40;35.00;;;;;;;-128.00;-1.00;-1.00;105698;1253;1004133;-76
2023/01/23 05:36:38;;;;;;;58.20;36.70;;;;;;;-128.00;-1.00;-1.00;105796;1253;1004971;-75
2023/01/23 05:39:08;;;;;;;56.10;36.70;;;;;;;-128.00;-1.00;-1.00;105567;1253;1003538;-74
2023/01/23 05:41:35;;;;;;;55.90;36.80;;;;;;;-128.00;-1.00;-1.00;105666;1253;1046063;-74
2023/01/23 05:44:01;;;;;;;54.60;38.10;;;;;;;-128.00;-1.00;-1.00;105657;1254;1004218;-76
2023/01/23 05:46:28;;;;;;;59.50;35.00;;;;;;;-128.00;-1.00;-1.00;105732;1253;1005057;-75
2023/01/23 05:48:55;;;;;;;53.20;35.50;;;;;;;-128.00;-1.00;-1.00;105700;1252;1004942;-76
2023/01/23 05:51:22;;;;;;;55.10;36.00;;;;;;;-128.00;-1.00;-1.00;105697;1252;1004664;-75
2023/01/23 05:53:49;;;;;;;52.60;33.20;;;;;;;-128.00;-1.00;-1.00;105670;1254;1004766;-74
2023/01/23 05:56:16;;;;;;;53.80;33.40;;;;;;;-128.00;-1.00;-1.00;105719;1254;1004898;-75
2023/01/23 05:58:42;;;;;;;51.30;31.60;;;;;;;-128.00;-1.00;-1.00;105732;1253;1004715;-75
2023/01/23 06:01:09;;;;;;;52.20;30.50;;;;;;;-128.00;-1.00;-1.00;105395;1254;1004946;-75
2023/01/23 06:03:36;;;;;;;54.20;30.10;;;;;;;-128.00;-1.00;-1.00;105691;1254;1004624;-75
2023/01/23 06:06:02;;;;;;;48.10;30.90;;;;;;;-128.00;-1.00;-1.00;105713;1254;1004358;-76
2023/01/23 06:08:29;;;;;;;50.80;30.20;;;;;;;-128.00;-1.00;-1.00;105732;1253;1004572;-76
2023/01/23 06:10:58;;;;;;;44.80;27.00;;;;;;;-128.00;-1.00;-1.00;105707;1253;1003369;-76
2023/01/23 06:13:25;;;;;;;49.90;29.60;;;;;;;-128.00;-1.00;-1.00;105706;1254;1055736;-76
2023/01/23 06:15:52;;;;;;;48.50;29.00;;;;;;;-128.00;-1.00;-1.00;105704;1254;1004090;-76
2023/01/23 06:18:19;;;;;;;48.10;27.30;;;;;;;-128.00;-1.00;-1.00;105680;1253;1005309;-76
2023/01/23 06:20:46;;;;;;;51.20;29.90;;;;;;;-128.00;-1.00;-1.00;105681;1252;1004093;-76
2023/01/23 06:23:13;;;;;;;47.80;28.40;;;;;;;-128.00;-1.00;-1.00;105668;1252;1003967;-76
2023/01/23 06:25:40;;;;;;;49.30;27.70;;;;;;;-128.00;-1.00;-1.00;105710;1254;1004246;-77
2023/01/23 06:28:07;;;;;;;48.20;27.40;;;;;;;-128.00;-1.00;-1.00;105693;1253;1003277;-76
2023/01/23 06:30:34;;;;;;;44.00;27.10;;;;;;;-128.00;-1.00;-1.00;105669;1254;1004241;-77
2023/01/23 06:33:00;;;;;;;46.30;28.40;;;;;;;-128.00;-1.00;-1.00;105654;1253;1004721;-76
2023/01/23 06:35:27;;;;;;;44.60;28.60;;;;;;;-128.00;-1.00;-1.00;105722;1254;1004378;-76
2023/01/23 06:37:54;;;;;;;41.20;27.30;;;;;;;-128.00;-1.00;-1.00;105610;1254;1004550;-76
2023/01/23 06:40:21;;;;;;;50.90;32.20;;;;;;;-128.00;-1.00;-1.00;105652;1253;1004462;-76
2023/01/23 06:42:49;;;;;;;49.20;30.40;;;;;;;-128.00;-1.00;-1.00;105674;1253;1004510;-75
2023/01/23 06:45:16;;;;;;;57.70;38.00;;;;;;;-128.00;-1.00;-1.00;105691;1251;1047522;-75
2023/01/23 06:47:43;;;;;;;62.80;41.60;;;;;;;-128.00;-1.00;-1.00;105715;1252;1003608;-75
2023/01/23 06:50:09;;;;;;;62.40;38.00;;;;;;;-128.00;-1.00;-1.00;105706;1254;1004442;-75
2023/01/23 06:52:36;;;;;;;54.60;37.90;;;;;;;-128.00;-1.00;-1.00;105677;1253;1004381;-76
2023/01/23 06:55:03;;;;;;;50.90;31.60;;;;;;;-128.00;-1.00;-1.00;105666;1253;1003328;-76
2023/01/23 06:57:31;;;;;;;50.70;32.00;;;;;;;-128.00;-1.00;-1.00;105436;1252;1004297;-75
2023/01/23 06:59:58;;;;;;;47.60;31.10;;;;;;;-128.00;-1.00;-1.00;105662;1251;1004256;-75
2023/01/23 07:02:24;;;;;;;52.60;32.00;;;;;;;-128.00;-1.00;-1.00;105688;1253;1004169;-75
2023/01/23 07:04:51;;;;;;;46.40;30.70;;;;;;;-128.00;-1.00;-1.00;105657;1253;1003722;-76
2023/01/23 07:07:18;;;;;;;45.90;30.20;;;;;;;-128.00;-1.00;-1.00;105689;1253;1005015;-75
2023/01/23 07:09:45;;;;;;;47.10;31.30;;;;;;;-128.00;-1.00;-1.00;105715;1252;1004798;-75
2023/01/23 07:12:12;;;;;;;40.30;26.50;;;;;;;-128.00;-1.00;-1.00;105685;1251;1004529;-75
2023/01/23 07:14:38;;;;;;;36.30;25.30;;;;;;;-128.00;-1.00;-1.00;105442;1253;1004666;-75
2023/01/23 07:17:05;;;;;;;33.50;22.30;;;;;;;-128.00;-1.00;-1.00;105664;1254;1004323;-75
2023/01/23 07:19:32;;;;;;;37.50;24.50;;;;;;;-128.00;-1.00;-1.00;105703;1252;1004675;-75
2023/01/23 07:22:00;;;;;;;30.60;22.50;;;;;;;-128.00;-1.00;-1.00;105450;1253;1004614;-75
2023/01/23 07:24:28;;;;;;;35.80;24.20;;;;;;;-128.00;-1.00;-1.00;105710;1253;1003938;-75
2023/01/23 07:26:55;;;;;;;35.90;24.10;;;;;;;-128.00;-1.00;-1.00;105665;1254;1054777;-75
2023/01/23 07:29:22;;;;;;;35.30;23.80;;;;;;;-128.00;-1.00;-1.00;105657;1252;1004125;-75
2023/01/23 07:31:48;;;;;;;40.00;25.30;;;;;;;-128.00;-1.00;-1.00;105680;1252;1004816;-76
2023/01/23 07:34:15;;;;;;;38.00;24.00;;;;;;;-128.00;-1.00;-1.00;105648;1252;1004720;-75
2023/01/23 07:36:42;;;;;;;32.60;23.00;;;;;;;-128.00;-1.00;-1.00;105659;1254;1004638;-75
2023/01/23 07:39:09;;;;;;;29.20;20.60;;;;;;;-128.00;-1.00;-1.00;105691;1252;1004290;-75
2023/01/23 07:41:35;;;;;;;27.80;19.80;;;;;;;-128.00;-1.00;-1.00;105700;1252;1003391;-75
2023/01/23 07:44:02;;;;;;;28.50;19.40;;;;;;;-128.00;-1.00;-1.00;105663;1253;1004328;-75
2023/01/23 07:46:29;;;;;;;31.40;21.80;;;;;;;-128.00;-1.00;-1.00;105684;1253;1004391;-75
2023/01/23 07:48:55;;;;;;;42.50;26.90;;;;;;;-128.00;-1.00;-1.00;105670;1252;1004538;-76
2023/01/23 07:51:22;;;;;;;40.50;27.00;;;;;;;-128.00;-1.00;-1.00;105670;1252;1003212;-76
2023/01/23 07:53:49;;;;;;;46.20;28.70;;;;;;;-128.00;-1.00;-1.00;105711;1253;1003888;-75
2023/01/23 07:56:16;;;;;;;39.70;25.90;;;;;;;-128.00;-1.00;-1.00;105722;1253;1003684;-75
2023/01/23 07:58:42;;;;;;;43.30;28.70;;;;;;;-128.00;-1.00;-1.00;105689;1252;1004775;-74
2023/01/23 08:01:10;;;;;;;42.10;27.90;;;;;;;-128.00;-1.00;-1.00;105728;1253;1003715;-75
2023/01/23 08:03:38;;;;;;;42.70;28.40;;;;;;;-128.00;-1.00;-1.00;105543;1251;1003768;-75
2023/01/23 08:06:05;;;;;;;42.50;28.40;;;;;;;-128.00;-1.00;-1.00;105676;1252;1004194;-76
2023/01/23 08:08:31;;;;;;;44.60;29.60;;;;;;;-128.00;-1.00;-1.00;105681;1252;1004073;-76
2023/01/23 08:11:02;;;;;;;44.20;31.20;;;;;;;-128.00;-1.00;-1.00;105731;1252;1004016;-76
2023/01/23 08:13:29;;;;;;;50.90;34.40;;;;;;;-128.00;-1.00;-1.00;105694;1251;1060927;-77
2023/01/23 08:15:58;;;;;;;57.00;36.10;;;;;;;-128.00;-1.00;-1.00;105729;1252;1003881;-75
2023/01/23 08:18:25;;;;;;;50.80;35.00;;;;;;;-128.00;-1.00;-1.00;105682;1253;1059902;-75
2023/01/23 08:20:53;;;;;;;48.40;32.00;;;;;;;-128.00;-1.00;-1.00;105698;1252;1003554;-76
2023/01/23 08:23:24;;;;;;;51.60;35.50;;;;;;;-128.00;-1.00;-1.00;105672;1252;1004443;-76
2023/01/23 08:25:52;;;;;;;48.60;33.40;;;;;;;-128.00;-1.00;-1.00;105685;1252;1061008;-76
2023/01/23 08:28:20;;;;;;;42.80;28.90;;;;;;;-128.00;-1.00;-1.00;105738;1252;1003739;-76
2023/01/23 08:30:46;;;;;;;43.90;29.80;;;;;;;-128.00;-1.00;-1.00;105692;1252;1005242;-76
2023/01/23 08:33:13;;;;;;;42.10;28.50;;;;;;;-128.00;-1.00;-1.00;105391;1252;1003253;-75
2023/01/23 08:35:54;;;;;;;38.70;28.30;;;;;;;-128.00;-1.00;-1.00;105712;1252;1003623;-76
2023/01/23 08:38:21;;;;;;;41.50;27.90;;;;;;;-128.00;-1.00;-1.00;105723;1252;1061668;-76
2023/01/23 08:40:50;;;;;;;37.30;27.70;;;;;;;-128.00;-1.00;-1.00;105693;1252;1006208;-75
2023/01/23 08:43:17;;;;;;;37.00;26.40;;;;;;;-128.00;-1.00;-1.00;105697;1252;1059445;-76
2023/01/23 08:45:52;;;;;;;36.50;24.40;;;;;;;-128.00;-1.00;-1.00;105703;1252;1004175;-76
2023/01/23 08:48:20;;;;;;;35.20;26.00;;;;;;;-128.00;-1.00;-1.00;105573;1252;1046629;-75
2023/01/23 08:50:47;;;;;;;33.90;23.90;;;;;;;-128.00;-1.00;-1.00;104785;1253;1063095;-76
2023/01/23 08:53:15;;;;;;;37.10;26.10;;;;;;;-128.00;-1.00;-1.00;105713;1252;1004752;-75
2023/01/23 08:55:42;;;;;;;35.40;25.10;;;;;;;-128.00;-1.00;-1.00;105651;1253;1004059;-75
2023/01/23 08:58:11;;;;;;;42.00;27.60;;;;;;;-128.00;-1.00;-1.00;105556;1252;1004297;-75
2023/01/23 09:00:39;;;;;;;36.50;25.20;;;;;;;-128.00;-1.00;-1.00;105695;1252;1047028;-75
2023/01/23 09:03:06;;;;;;;38.40;26.60;;;;;;;-128.00;-1.00;-1.00;105702;1252;1003538;-75
2023/01/23 09:05:33;;;;;;;38.70;27.70;;;;;;;-128.00;-1.00;-1.00;105675;1252;1004172;-75
2023/01/23 09:08:00;;;;;;;41.50;29.20;;;;;;;-128.00;-1.00;-1.00;105676;1252;1003487;-75
2023/01/23 09:10:27;;;;;;;40.40;29.40;;;;;;;-128.00;-1.00;-1.00;105681;1252;1004808;-76
2023/01/23 09:12:54;;;;;;;40.50;31.10;;;;;;;-128.00;-1.00;-1.00;105730;1251;1004608;-77
2023/01/23 09:15:22;;;;;;;41.60;31.40;;;;;;;-128.00;-1.00;-1.00;105679;1253;1004930;-75
2023/01/23 09:17:49;;;;;;;45.90;32.60;;;;;;;-128.00;-1.00;-1.00;105675;1253;1004116;-75
2023/01/23 09:20:16;;;;;;;46.30;33.80;;;;;;;-128.00;-1.00;-1.00;105686;1251;1004337;-74
2023/01/23 09:22:43;;;;;;;41.10;32.30;;;;;;;-128.00;-1.00;-1.00;105672;1252;1004794;-76
2023/01/23 09:25:11;;;;;;;42.10;32.00;;;;;;;-128.00;-1.00;-1.00;105674;1252;1005353;-74
2023/01/23 09:27:38;;;;;;;44.70;34.80;;;;;;;-128.00;-1.00;-1.00;105671;1252;1004523;-75
2023/01/23 09:30:05;;;;;;;44.90;33.60;;;;;;;-128.00;-1.00;-1.00;105743;1251;1004083;-76
2023/01/23 09:32:32;;;;;;;42.50;32.90;;;;;;;-128.00;-1.00;-1.00;105669;1252;1003851;-75
2023/01/23 09:34:59;;;;;;;50.90;37.20;;;;;;;-128.00;-1.00;-1.00;105662;1252;1004611;-76
2023/01/23 09:37:28;;;;;;;46.30;36.30;;;;;;;-128.00;-1.00;-1.00;105686;1251;1004815;-75
2023/01/23 09:39:55;;;;;;;45.90;35.30;;;;;;;-128.00;-1.00;-1.00;105683;1251;1061071;-75
2023/01/23 09:42:30;;;;;;;45.80;34.30;;;;;;;-128.00;-1.00;-1.00;105679;1251;1003528;-75
2023/01/23 09:45:04;;;;;;;42.00;33.20;;;;;;;-128.00;-1.00;-1.00;105691;1251;1058803;-75
2023/01/23 09:47:41;;;;;;;46.90;36.30;;;;;;;-128.00;-1.00;-1.00;105733;1252;1045584;-75
2023/01/23 09:50:20;;;;;;;45.80;35.90;;;;;;;-128.00;-1.00;-1.00;105726;1251;1047074;-75
2023/01/23 09:52:57;;;;;;;43.00;33.40;;;;;;;-128.00;-1.00;-1.00;105700;1252;1063425;-75
2023/01/23 09:55:44;;;;;;;48.50;37.40;;;;;;;-128.00;-1.00;-1.00;105712;1252;1055187;-76
2023/01/23 09:58:21;;;;;;;53.90;39.50;;;;;;;-128.00;-1.00;-1.00;105662;1252;1058546;-75
2023/01/23 10:00:50;;;;;;;50.80;39.80;;;;;;;-128.00;-1.00;-1.00;105685;1252;1046228;-75
2023/01/23 10:03:17;;;;;;;54.70;41.30;;;;;;;-128.00;-1.00;-1.00;105648;1252;1047177;-76
2023/01/23 10:06:02;;;;;;;52.30;40.10;;;;;;;-128.00;-1.00;-1.00;105654;1252;1004154;-75
2023/01/23 10:08:50;;;;;;;54.40;41.10;;;;;;;-128.00;-1.00;-1.00;105698;1252;1055904;-76
2023/01/23 10:11:19;;;;;;;49.50;38.00;;;;;;;-128.00;-1.00;-1.00;105709;1251;1059859;-75
2023/01/23 10:14:08;;;;;;;53.90;39.20;;;;;;;-128.00;-1.00;-1.00;105707;1252;1045506;-75
2023/01/23 10:17:01;;;;;;;48.40;36.60;;;;;;;-128.00;-1.00;-1.00;105707;1252;1046008;-76
2023/01/23 10:19:37;;;;;;;50.40;37.20;;;;;;;-128.00;-1.00;-1.00;105566;1253;1062813;-75
2023/01/23 10:22:25;;;;;;;48.30;37.40;;;;;;;-128.00;-1.00;-1.00;105575;1253;1054911;-76
2023/01/23 10:24:56;;;;;;;49.70;36.50;;;;;;;-128.00;-1.00;-1.00;105541;1253;1058959;-76
2023/01/23 10:27:25;;;;;;;45.90;34.50;;;;;;;-128.00;-1.00;-1.00;105541;1253;1044851;-77
2023/01/23 10:29:58;;;;;;;47.30;35.70;;;;;;;-128.00;-1.00;-1.00;105543;1253;1046644;-76
2023/01/23 10:32:31;;;;;;;41.90;31.50;;;;;;;-128.00;-1.00;-1.00;105578;1253;1060741;-75
2023/01/23 10:35:35;;;;;;;37.30;30.20;;;;;;;-128.00;-1.00;-1.00;105365;1254;1058082;-75
2023/01/23 10:38:21;;;;;;;36.90;28.40;;;;;;;-128.00;-1.00;-1.00;105527;1253;1058874;-76
2023/01/23 10:43:34;;;;;;;41.70;33.90;;;;;;;-128.00;-1.00;-1.00;105576;1253;1047635;-76
2023/01/23 10:46:24;;;;;;;44.90;34.80;;;;;;;-128.00;-1.00;-1.00;105586;1253;1004727;-76
2023/01/23 10:48:53;;;;;;;41.30;34.90;;;;;;;-128.00;-1.00;-1.00;105109;1260;1055436;-75
2023/01/23 10:51:37;;;;;;;44.40;36.10;;;;;;;-128.00;-1.00;-1.00;105140;1259;1004359;-76
2023/01/23 10:54:19;;;;;;;48.50;38.50;;;;;;;-128.00;-1.00;-1.00;105173;1259;1044825;-76
2023/01/23 10:56:58;;;;;;;42.40;34.10;;;;;;;-128.00;-1.00;-1.00;105179;1259;1046242;-76
2023/01/23 10:59:26;;;;;;;33.60;29.70;;;;;;;-128.00;-1.00;-1.00;105182;1259;1061639;-75
2023/01/23 11:01:56;;;;;;;34.10;29.70;;;;;;;-128.00;-1.00;-1.00;105116;1259;1055865;-75
2023/01/23 11:04:25;;;;;;;33.20;29.00;;;;;;;-128.00;-1.00;-1.00;105130;1259;1059337;-76
2023/01/23 11:07:01;;;;;;;36.60;30.80;;;;;;;-128.00;-1.00;-1.00;105174;1259;1046552;-77
2023/01/23 11:09:27;;;;;;;36.60;31.20;;;;;;;-128.00;-1.00;-1.00;105106;1259;1046959;-76
2023/01/23 11:12:05;;;;;;;39.20;31.50;;;;;;;-128.00;-1.00;-1.00;105148;1259;1003480;-75
2023/01/23 11:14:32;;;;;;;40.80;32.40;;;;;;;-128.00;-1.00;-1.00;105143;1261;1055973;-75
2023/01/23 11:17:23;;;;;;;34.30;30.60;;;;;;;-128.00;-1.00;-1.00;105182;1259;1003562;-76
2023/01/23 11:19:53;;;;;;;38.30;32.40;;;;;;;-128.00;-1.00;-1.00;104904;1263;1045045;-75
2023/01/23 11:22:35;;;;;;;37.30;33.10;;;;;;;-128.00;-1.00;-1.00;104976;1263;1047340;-76